createdAt,value
2023-04-17T00:02:10.696Z,99.90
2023-04-17T00:04:42.962Z,99.90
2023-04-17T00:07:15.181Z,99.90
2023-04-17T00:09:47.185Z,99.90
2023-04-17T00:12:19.082Z,99.90
2023-04-17T00:14:51.043Z,99.90
2023-04-17T00:17:23.042Z,99.90
2023-04-17T00:19:55.030Z,99.90
2023-04-17T00:22:27.277Z,99.90
2023-04-17T00:24:59.215Z,99.90
2023-04-17T00:27:31.369Z,99.90
2023-04-17T00:30:03.674Z,99.90
2023-04-17T00:32:35.906Z,99.90
2023-04-17T00:35:08.457Z,99.90
2023-04-17T00:37:40.446Z,99.90
2023-04-17T00:40:13.466Z,99.90
2023-04-17T00:42:48.285Z,99.90
2023-04-17T00:45:23.025Z,99.90
2023-04-17T00:47:58.779Z,99.90
2023-04-17T00:50:31.816Z,99.90
2023-04-17T00:53:04.041Z,99.90
2023-04-17T00:55:39.617Z,99.90
2023-04-17T00:58:12.186Z,99.90
2023-04-17T01:00:45.117Z,99.90
2023-04-17T01:03:17.223Z,99.90
2023-04-17T01:05:52.370Z,99.90
2023-04-17T01:08:24.652Z,99.90
2023-04-17T01:10:56.584Z,99.90
2023-04-17T01:13:28.468Z,99.90
2023-04-17T01:16:00.402Z,99.90
2023-04-17T01:18:32.291Z,99.90
2023-04-17T01:21:04.371Z,99.90
2023-04-17T01:23:52.881Z,99.90
2023-04-17T01:26:26.376Z,99.90
2023-04-17T01:29:00.005Z,99.90
2023-04-17T01:31:32.061Z,99.90
2023-04-17T01:34:04.120Z,99.90
2023-04-17T01:36:36.071Z,99.90
2023-04-17T01:39:07.999Z,99.90
2023-04-17T01:41:39.977Z,99.90
2023-04-17T01:44:12.004Z,99.90
2023-04-17T01:46:44.248Z,99.90
2023-04-17T01:49:16.920Z,99.90
2023-04-17T01:51:48.871Z,99.90
2023-04-17T01:54:21.340Z,99.90
2023-04-17T01:56:53.392Z,99.90
2023-04-17T01:59:25.695Z,99.90
2023-04-17T02:01:57.800Z,99.90
2023-04-17T02:04:29.990Z,99.90
2023-04-17T02:07:02.095Z,99.90
2023-04-17T02:09:34.013Z,99.90
2023-04-17T02:12:06.666Z,99.90
2023-04-17T02:14:38.588Z,99.90
2023-04-17T02:17:10.748Z,99.90
2023-04-17T02:19:42.678Z,99.90
2023-04-17T02:22:14.618Z,99.90
2023-04-17T02:24:46.594Z,99.90
2023-04-17T02:27:18.509Z,99.90
2023-04-17T02:29:50.627Z,99.90
2023-04-17T02:32:22.604Z,99.90
2023-04-17T02:34:54.709Z,99.90
2023-04-17T02:37:26.617Z,99.90
2023-04-17T02:39:58.557Z,99.90
2023-04-17T02:42:30.596Z,99.90
2023-04-17T02:45:04.401Z,99.90
2023-04-17T02:47:36.841Z,99.90
2023-04-17T02:50:09.505Z,99.90
2023-04-17T02:52:41.467Z,99.90
2023-04-17T02:55:13.481Z,99.90
2023-04-17T02:57:45.609Z,99.90
2023-04-17T03:00:17.832Z,99.90
2023-04-17T03:02:50.227Z,99.90
2023-04-17T03:05:23.417Z,99.90
2023-04-17T03:07:55.445Z,99.90
2023-04-17T03:10:27.420Z,99.90
2023-04-17T03:12:59.385Z,99.90
2023-04-17T03:15:31.389Z,99.90
2023-04-17T03:18:03.351Z,99.90
2023-04-17T03:20:35.336Z,99.90
2023-04-17T03:23:07.286Z,99.90
2023-04-17T03:25:39.391Z,99.90
2023-04-17T03:28:11.655Z,99.90
2023-04-17T03:30:43.622Z,99.90
2023-04-17T03:33:16.561Z,99.90
2023-04-17T03:35:48.530Z,99.90
2023-04-17T03:38:20.642Z,99.90
2023-04-17T03:40:52.686Z,99.90
2023-04-17T03:43:24.735Z,99.90
2023-04-17T03:45:56.803Z,99.90
2023-04-17T03:48:28.767Z,99.90
2023-04-17T03:51:00.774Z,99.90
2023-04-17T03:53:32.748Z,99.90
2023-04-17T03:56:05.046Z,99.90
2023-04-17T03:58:36.923Z,99.90
2023-04-17T04:01:10.900Z,99.90
2023-04-17T04:03:43.215Z,99.90
2023-04-17T04:06:20.305Z,99.90
2023-04-17T04:08:52.280Z,99.90
2023-04-17T04:11:24.246Z,99.90
2023-04-17T04:13:56.347Z,99.90
2023-04-17T04:16:28.359Z,99.90
2023-04-17T04:19:00.327Z,99.90
2023-04-17T04:21:32.268Z,99.90
2023-04-17T04:24:04.274Z,99.90
2023-04-17T04:26:37.957Z,99.90
2023-04-17T04:29:11.898Z,99.90
2023-04-17T04:31:46.882Z,99.90
2023-04-17T04:34:18.879Z,99.90
2023-04-17T04:36:51.001Z,99.90
2023-04-17T04:39:23.318Z,99.90
2023-04-17T04:41:55.978Z,99.90
2023-04-17T04:44:27.929Z,99.90
2023-04-17T04:46:59.903Z,99.90
2023-04-17T04:49:32.075Z,99.90
2023-04-17T04:52:04.080Z,99.90
2023-04-17T04:54:36.026Z,99.90
2023-04-17T04:57:07.906Z,99.90
2023-04-17T04:59:39.864Z,99.90
2023-04-17T05:02:11.929Z,99.90
2023-04-17T05:04:44.014Z,99.90
2023-04-17T05:07:16.015Z,99.90
2023-04-17T05:09:47.960Z,99.90
2023-04-17T05:12:19.838Z,99.90
2023-04-17T05:14:51.755Z,99.90
2023-04-17T05:17:23.732Z,99.90
2023-04-17T05:19:55.710Z,99.90
2023-04-17T05:22:27.675Z,99.90
2023-04-17T05:24:59.547Z,99.90
2023-04-17T05:27:31.481Z,99.90
2023-04-17T05:30:04.495Z,99.90
2023-04-17T05:32:36.584Z,99.90
2023-04-17T05:35:08.991Z,99.90
2023-04-17T05:37:40.978Z,99.90
2023-04-17T05:40:13.348Z,99.90
2023-04-17T05:42:45.438Z,99.90
2023-04-17T05:45:21.403Z,99.90
2023-04-17T05:47:54.546Z,99.90
2023-04-17T05:50:26.589Z,99.90
2023-04-17T05:52:58.734Z,99.90
2023-04-17T05:55:30.989Z,99.90
2023-04-17T05:58:10.464Z,99.90
2023-04-17T06:00:54.703Z,99.90
2023-04-17T06:03:27.095Z,99.90
2023-04-17T06:05:59.623Z,99.90
2023-04-17T06:08:31.524Z,99.90
2023-04-17T06:11:03.493Z,99.90
2023-04-17T06:13:35.469Z,99.90
2023-04-17T06:16:10.616Z,99.90
2023-04-17T06:18:43.054Z,99.90
2023-04-17T06:21:15.190Z,99.90
2023-04-17T06:23:47.169Z,99.90
2023-04-17T06:26:19.176Z,99.90
2023-04-17T06:28:51.159Z,99.90
2023-04-17T06:31:23.278Z,99.90
2023-04-17T06:33:55.417Z,99.90
2023-04-17T06:36:27.840Z,99.90
2023-04-17T06:38:59.879Z,99.90
2023-04-17T06:41:31.846Z,99.90
2023-04-17T06:44:03.769Z,99.90
2023-04-17T06:46:35.891Z,99.90
2023-04-17T06:49:07.998Z,99.90
2023-04-17T06:51:40.001Z,99.90
2023-04-17T06:54:12.343Z,99.90
2023-04-17T06:56:44.287Z,99.90
2023-04-17T06:59:16.952Z,99.90
2023-04-17T07:01:49.012Z,99.90
2023-04-17T07:04:21.574Z,99.90
2023-04-17T07:06:53.541Z,99.90
2023-04-17T07:09:26.324Z,99.90
2023-04-17T07:11:58.296Z,99.90
2023-04-17T07:14:30.631Z,99.90
2023-04-17T07:17:04.287Z,99.90
2023-04-17T07:19:37.595Z,99.90
2023-04-17T07:22:10.206Z,99.90
2023-04-17T07:24:42.196Z,99.90
2023-04-17T07:27:14.112Z,99.90
2023-04-17T07:29:47.694Z,99.90
2023-04-17T07:32:20.090Z,99.90
2023-04-17T07:34:52.259Z,99.90
2023-04-17T07:37:24.168Z,99.90
2023-04-17T07:39:57.388Z,99.90
2023-04-17T07:42:29.354Z,99.90
2023-04-17T07:45:01.315Z,99.90
2023-04-17T07:47:33.470Z,99.90
2023-04-17T07:50:06.261Z,99.90
2023-04-17T07:52:38.210Z,99.90
2023-04-17T07:55:10.585Z,99.90
2023-04-17T07:57:43.461Z,99.90
2023-04-17T08:00:16.307Z,99.90
2023-04-17T08:02:48.812Z,99.90
2023-04-17T08:05:21.002Z,99.90
2023-04-17T08:07:53.189Z,99.90
2023-04-17T08:10:25.387Z,99.90
2023-04-17T08:12:57.393Z,99.90
2023-04-17T08:15:29.616Z,99.90
2023-04-17T08:18:01.838Z,99.90
2023-04-17T08:20:34.001Z,99.90
2023-04-17T08:23:06.108Z,99.90
2023-04-17T08:25:38.048Z,99.90
2023-04-17T08:28:10.023Z,99.90
2023-04-17T08:30:42.184Z,99.90
2023-04-17T08:33:16.877Z,99.90
2023-04-17T08:35:49.487Z,99.90
2023-04-17T08:38:21.474Z,99.90
2023-04-17T08:41:02.849Z,99.90
2023-04-17T08:43:36.403Z,99.90
2023-04-17T08:46:08.518Z,99.90
2023-04-17T08:48:40.782Z,99.90
2023-04-17T08:51:13.697Z,99.90
2023-04-17T08:53:45.779Z,99.90
2023-04-17T08:56:17.839Z,99.90
2023-04-17T08:58:49.914Z,99.90
2023-04-17T09:01:21.887Z,99.90
2023-04-17T09:03:54.116Z,99.90
2023-04-17T09:06:27.531Z,99.90
2023-04-17T09:09:04.941Z,99.90
2023-04-17T09:11:37.122Z,99.90
2023-04-17T09:14:30.578Z,99.90
2023-04-17T09:17:02.529Z,99.90
2023-04-17T09:19:35.286Z,99.90
2023-04-17T09:22:23.189Z,99.90
2023-04-17T09:24:57.300Z,99.90
2023-04-17T09:27:30.168Z,99.90
2023-04-17T09:30:07.045Z,99.90
2023-04-17T09:32:40.752Z,99.90
2023-04-17T09:35:27.346Z,99.90
2023-04-17T09:37:59.741Z,99.90
2023-04-17T09:40:41.604Z,99.90
2023-04-17T09:43:13.502Z,99.90
2023-04-17T09:45:46.212Z,99.90
2023-04-17T09:48:19.289Z,99.90
2023-04-17T09:50:52.763Z,99.90
2023-04-17T09:53:24.844Z,99.90
2023-04-17T09:55:58.832Z,99.90
2023-04-17T09:58:30.976Z,99.90
2023-04-17T10:01:03.819Z,99.90
2023-04-17T10:03:37.617Z,99.90
2023-04-17T10:06:10.219Z,99.90
2023-04-17T10:08:42.781Z,99.90
2023-04-17T10:11:15.577Z,99.90
2023-04-17T10:13:58.576Z,99.90
2023-04-17T10:16:43.694Z,99.90
2023-04-17T10:19:29.779Z,99.90
2023-04-17T10:22:19.229Z,99.90
2023-04-17T10:25:13.373Z,99.90
2023-04-17T10:27:49.170Z,99.90
2023-04-17T10:30:23.006Z,99.90
2023-04-17T10:33:19.900Z,99.90
2023-04-17T10:35:52.813Z,99.90
2023-04-17T10:38:44.067Z,99.90
2023-04-17T10:41:16.118Z,99.90
2023-04-17T10:43:48.347Z,99.90
2023-04-17T10:46:26.015Z,99.90
2023-04-17T10:48:58.230Z,99.90
2023-04-17T10:51:30.161Z,99.90
2023-04-17T10:54:10.139Z,99.90
2023-04-17T10:56:47.444Z,99.90
2023-04-17T10:59:20.780Z,99.90
2023-04-17T11:01:53.601Z,99.90
2023-04-17T11:04:31.541Z,99.90
2023-04-17T11:07:03.648Z,99.90
2023-04-17T11:09:36.255Z,99.90
2023-04-17T11:12:08.226Z,99.90
2023-04-17T11:14:43.116Z,99.90
2023-04-17T11:17:15.200Z,99.90
2023-04-17T11:19:48.219Z,99.90
2023-04-17T11:22:21.953Z,99.90
2023-04-17T11:24:53.899Z,99.90
2023-04-17T11:27:25.898Z,99.90
2023-04-17T11:29:57.911Z,99.90
2023-04-17T11:32:36.964Z,99.90
2023-04-17T11:35:11.008Z,99.90
2023-04-17T11:38:22.824Z,99.90
2023-04-17T11:41:01.310Z,99.90
2023-04-17T11:43:36.940Z,99.90
2023-04-17T11:46:08.969Z,99.90
2023-04-17T11:48:40.936Z,99.90
2023-04-17T11:51:18.338Z,99.90
2023-04-17T11:53:50.385Z,99.90
2023-04-17T11:56:27.306Z,99.90
2023-04-17T11:59:01.607Z,99.80
2023-04-17T12:01:33.543Z,99.90
2023-04-17T12:04:22.011Z,99.10
2023-04-17T12:06:54.511Z,98.60
2023-04-17T12:09:31.503Z,98.50
2023-04-17T12:12:08.048Z,98.00
2023-04-17T12:14:40.178Z,97.60
2023-04-17T12:17:12.098Z,97.50
2023-04-17T12:19:45.322Z,97.20
2023-04-17T12:22:17.286Z,97.10
2023-04-17T12:24:49.256Z,97.10
2023-04-17T12:27:21.622Z,96.80
2023-04-17T12:29:53.588Z,96.70
2023-04-17T12:32:25.567Z,96.80
2023-04-17T12:34:57.678Z,96.70
2023-04-17T12:37:29.718Z,96.30
2023-04-17T12:40:01.724Z,96.10
2023-04-17T12:42:39.421Z,96.00
2023-04-17T12:45:16.572Z,95.70
2023-04-17T12:47:48.912Z,95.30
2023-04-17T12:50:20.879Z,95.00
2023-04-17T12:52:52.838Z,94.60
2023-04-17T12:55:26.291Z,94.50
2023-04-17T12:57:58.945Z,94.40
2023-04-17T13:00:30.971Z,94.50
2023-04-17T13:03:03.289Z,94.70
2023-04-17T13:05:35.759Z,94.10
2023-04-17T13:08:12.501Z,93.40
2023-04-17T13:10:44.487Z,92.80
2023-04-17T13:13:16.563Z,92.40
2023-04-17T13:15:49.354Z,91.80
2023-04-17T13:18:21.293Z,91.10
2023-04-17T13:20:53.283Z,90.80
2023-04-17T13:23:25.254Z,90.30
2023-04-17T13:25:57.282Z,89.60
2023-04-17T13:28:29.190Z,88.60
2023-04-17T13:31:01.200Z,88.00
2023-04-17T13:33:33.150Z,87.50
2023-04-17T13:36:05.605Z,85.70
2023-04-17T13:38:37.519Z,83.60
2023-04-17T13:41:09.537Z,82.40
2023-04-17T13:43:41.526Z,82.00
2023-04-17T13:46:16.291Z,81.30
2023-04-17T13:48:48.636Z,81.00
2023-04-17T13:51:20.649Z,80.50
2023-04-17T13:53:52.770Z,80.00
2023-04-17T13:56:26.866Z,80.20
2023-04-17T13:58:59.723Z,80.10
2023-04-17T14:01:32.703Z,80.00
2023-04-17T14:04:05.590Z,79.70
2023-04-17T14:06:37.891Z,79.20
2023-04-17T14:09:11.360Z,77.90
2023-04-17T14:11:43.937Z,76.90
2023-04-17T14:14:15.865Z,76.80
2023-04-17T14:16:49.758Z,76.20
2023-04-17T14:19:21.772Z,75.50
2023-04-17T14:21:53.779Z,75.00
2023-04-17T14:24:25.790Z,75.10
2023-04-17T14:26:57.847Z,75.10
2023-04-17T14:29:29.808Z,75.00
2023-04-17T14:32:01.773Z,75.00
2023-04-17T14:34:33.733Z,74.80
2023-04-17T14:37:05.645Z,74.80
2023-04-17T14:39:37.570Z,75.00
2023-04-17T14:42:09.546Z,75.50
2023-04-17T14:44:43.511Z,75.50
2023-04-17T14:47:16.372Z,75.80
2023-04-17T14:49:48.418Z,76.00
2023-04-17T14:52:20.504Z,76.10
2023-04-17T14:54:52.415Z,76.10
2023-04-17T14:57:24.674Z,76.00
2023-04-17T14:59:56.644Z,76.10
2023-04-17T15:02:28.734Z,76.20
2023-04-17T15:05:00.767Z,75.90
2023-04-17T15:07:33.018Z,75.20
2023-04-17T15:10:05.714Z,74.60
2023-04-17T15:12:37.667Z,74.50
2023-04-17T15:15:10.266Z,74.20
2023-04-17T15:17:42.422Z,74.00
2023-04-17T15:20:17.046Z,73.70
2023-04-17T15:22:52.500Z,73.90
2023-04-17T15:25:25.759Z,74.00
2023-04-17T15:27:57.787Z,74.30
2023-04-17T15:30:30.502Z,73.90
2023-04-17T15:33:02.538Z,73.40
2023-04-17T15:35:34.492Z,73.10
2023-04-17T15:38:07.631Z,72.70
2023-04-17T15:40:39.622Z,72.20
2023-04-17T15:43:12.364Z,71.90
2023-04-17T15:45:44.597Z,71.60
2023-04-17T15:48:16.620Z,70.90
2023-04-17T15:50:48.551Z,70.70
2023-04-17T15:53:20.630Z,70.60
2023-04-17T15:55:53.171Z,70.40
2023-04-17T15:58:25.108Z,70.30
2023-04-17T16:00:57.060Z,70.10
2023-04-17T16:03:29.099Z,69.80
2023-04-17T16:06:01.233Z,69.30
2023-04-17T16:08:33.180Z,69.10
2023-04-17T16:11:05.565Z,68.60
2023-04-17T16:13:37.471Z,68.70
2023-04-17T16:16:10.767Z,68.70
2023-04-17T16:18:42.727Z,68.60
2023-04-17T16:21:15.053Z,68.90
2023-04-17T16:23:48.782Z,69.00
2023-04-17T16:26:20.840Z,69.10
2023-04-17T16:28:52.777Z,69.30
2023-04-17T16:31:28.326Z,69.60
2023-04-17T16:34:00.461Z,69.70
2023-04-17T16:36:33.375Z,69.70
2023-04-17T16:39:05.669Z,69.70
2023-04-17T16:41:37.800Z,69.30
2023-04-17T16:44:09.774Z,69.00
2023-04-17T16:47:03.085Z,68.50
2023-04-17T16:49:33.752Z,68.40
2023-04-17T16:52:06.034Z,68.40
2023-04-17T16:54:37.993Z,68.40
2023-04-17T16:57:09.898Z,68.10
2023-04-17T16:59:41.812Z,67.80
2023-04-17T17:02:14.205Z,67.50
2023-04-17T17:04:46.191Z,67.40
2023-04-17T17:07:18.173Z,67.50
2023-04-17T17:09:50.216Z,67.60
2023-04-17T17:12:22.230Z,67.70
2023-04-17T17:14:54.332Z,67.60
2023-04-17T17:17:26.428Z,67.90
2023-04-17T17:19:59.594Z,68.10
2023-04-17T17:22:31.582Z,68.00
2023-04-17T17:25:03.800Z,68.00
2023-04-17T17:27:35.708Z,68.10
2023-04-17T17:30:08.595Z,68.10
2023-04-17T17:32:40.607Z,68.20
2023-04-17T17:35:12.647Z,68.20
2023-04-17T17:37:44.633Z,68.50
2023-04-17T17:40:16.726Z,68.80
2023-04-17T17:42:48.778Z,69.10
2023-04-17T17:45:20.771Z,69.10
2023-04-17T17:47:56.390Z,69.60
2023-04-17T17:50:28.352Z,70.30
2023-04-17T17:53:00.310Z,69.60
2023-04-17T17:55:37.090Z,69.70
2023-04-17T17:58:09.532Z,70.20
2023-04-17T18:00:41.446Z,70.40
2023-04-17T18:03:15.762Z,70.80
2023-04-17T18:05:47.995Z,71.30
2023-04-17T18:08:20.014Z,71.70
2023-04-17T18:10:51.934Z,72.20
2023-04-17T18:13:23.875Z,72.90
2023-04-17T18:15:55.890Z,73.50
2023-04-17T18:18:27.851Z,73.80
2023-04-17T18:20:59.800Z,75.30
2023-04-17T18:23:31.769Z,75.00
2023-04-17T18:26:04.242Z,75.80
2023-04-17T18:28:36.192Z,76.70
2023-04-17T18:31:08.187Z,77.10
2023-04-17T18:33:40.325Z,77.80
2023-04-17T18:36:12.337Z,78.50
2023-04-17T18:38:44.304Z,79.60
2023-04-17T18:41:16.255Z,79.60
2023-04-17T18:43:48.353Z,80.30
2023-04-17T18:46:21.808Z,80.80
2023-04-17T18:48:53.860Z,81.30
2023-04-17T18:51:26.387Z,81.30
2023-04-17T18:53:58.419Z,81.70
2023-04-17T18:56:30.566Z,82.00
2023-04-17T18:59:02.481Z,82.50
2023-04-17T19:01:34.643Z,82.80
2023-04-17T19:04:06.568Z,82.80
2023-04-17T19:06:38.614Z,83.20
2023-04-17T19:09:10.796Z,83.60
2023-04-17T19:11:42.975Z,83.80
2023-04-17T19:14:15.093Z,84.30
2023-04-17T19:16:47.475Z,84.50
2023-04-17T19:19:19.495Z,85.00
2023-04-17T19:21:51.466Z,85.30
2023-04-17T19:24:23.463Z,86.00
2023-04-17T19:26:55.489Z,86.50
2023-04-17T19:29:27.397Z,87.10
2023-04-17T19:31:59.442Z,87.60
2023-04-17T19:34:31.427Z,88.00
2023-04-17T19:37:03.637Z,88.50
2023-04-17T19:39:35.571Z,88.50
2023-04-17T19:42:07.495Z,89.50
2023-04-17T19:44:39.444Z,89.60
2023-04-17T19:47:11.436Z,89.90
2023-04-17T19:49:43.535Z,90.10
2023-04-17T19:52:15.628Z,90.30
2023-04-17T19:54:48.185Z,90.50
2023-04-17T19:57:20.105Z,90.80
2023-04-17T19:59:52.074Z,91.10
2023-04-17T20:02:24.197Z,91.50
2023-04-17T20:04:56.190Z,91.70
2023-04-17T20:07:28.153Z,92.10
2023-04-17T20:10:00.184Z,92.40
2023-04-17T20:12:32.105Z,92.80
2023-04-17T20:15:04.553Z,93.20
2023-04-17T20:17:36.526Z,93.60
2023-04-17T20:20:09.347Z,93.80
2023-04-17T20:22:41.486Z,93.90
2023-04-17T20:25:13.498Z,94.40
2023-04-17T20:27:45.476Z,94.70
2023-04-17T20:30:17.443Z,95.00
2023-04-17T20:32:49.683Z,95.30
2023-04-17T20:35:24.489Z,95.60
2023-04-17T20:37:57.191Z,95.90
2023-04-17T20:40:29.256Z,96.20
2023-04-17T20:43:01.265Z,96.60
2023-04-17T20:45:33.443Z,96.90
2023-04-17T20:48:05.665Z,97.10
2023-04-17T20:50:37.670Z,97.30
2023-04-17T20:53:09.643Z,97.60
2023-04-17T20:55:41.620Z,97.90
2023-04-17T20:58:13.594Z,98.10
2023-04-17T21:00:58.301Z,98.30
2023-04-17T21:03:34.140Z,98.30
2023-04-17T21:06:06.453Z,98.70
2023-04-17T21:08:38.551Z,98.80
2023-04-17T21:11:10.773Z,98.90
2023-04-17T21:13:42.790Z,99.00
2023-04-17T21:16:14.854Z,99.00
2023-04-17T21:18:46.917Z,99.00
2023-04-17T21:21:18.869Z,99.00
2023-04-17T21:23:51.824Z,99.00
2023-04-17T21:26:23.784Z,98.90
2023-04-17T21:28:57.356Z,98.90
2023-04-17T21:31:29.519Z,98.80
2023-04-17T21:34:01.505Z,98.70
2023-04-17T21:36:33.538Z,98.60
2023-04-17T21:39:06.913Z,98.50
2023-04-17T21:41:38.967Z,98.50
2023-04-17T21:44:11.151Z,98.50
2023-04-17T21:46:46.393Z,98.40
2023-04-17T21:49:19.296Z,98.40
2023-04-17T21:51:51.275Z,98.50
2023-04-17T21:54:25.315Z,98.50
2023-04-17T21:56:57.323Z,98.50
2023-04-17T21:59:29.638Z,98.50
2023-04-17T22:02:01.969Z,98.50
2023-04-17T22:04:33.973Z,98.40
2023-04-17T22:07:08.581Z,98.50
2023-04-17T22:09:40.527Z,98.40
2023-04-17T22:12:23.208Z,98.40
2023-04-17T22:14:55.274Z,98.40
2023-04-17T22:17:27.302Z,98.40
2023-04-17T22:19:59.259Z,98.50
2023-04-17T22:22:31.183Z,98.50
2023-04-17T22:25:03.246Z,98.50
2023-04-17T22:27:35.168Z,98.50
2023-04-17T22:30:07.773Z,98.80
2023-04-17T22:32:39.928Z,98.50
2023-04-17T22:35:11.891Z,98.50
2023-04-17T22:37:43.775Z,98.50
2023-04-17T22:40:15.854Z,98.60
2023-04-17T22:42:47.796Z,98.50
2023-04-17T22:45:19.708Z,98.60
2023-04-17T22:47:51.672Z,98.70
2023-04-17T22:50:23.836Z,98.70
2023-04-17T22:52:56.691Z,98.70
2023-04-17T22:55:28.584Z,98.70
2023-04-17T22:58:02.521Z,98.70
2023-04-17T23:00:34.601Z,98.80
2023-04-17T23:03:06.714Z,98.90
2023-04-17T23:05:38.705Z,99.00
2023-04-17T23:08:10.616Z,99.00
2023-04-17T23:10:42.829Z,99.00
2023-04-17T23:13:14.725Z,99.00
2023-04-17T23:15:46.711Z,99.00
2023-04-17T23:18:18.944Z,99.00
2023-04-17T23:20:50.965Z,98.90
2023-04-17T23:23:22.966Z,98.90
2023-04-17T23:25:54.929Z,99.00
2023-04-17T23:28:30.511Z,99.00
2023-04-17T23:31:06.757Z,99.10
2023-04-17T23:33:38.718Z,99.20
2023-04-17T23:36:11.355Z,99.30
2023-04-17T23:38:43.249Z,99.30
2023-04-17T23:41:15.303Z,99.40
2023-04-17T23:43:47.219Z,99.50
2023-04-17T23:46:19.186Z,99.60
2023-04-17T23:48:51.265Z,99.60
2023-04-17T23:51:23.250Z,99.50
2023-04-17T23:53:57.912Z,99.60
2023-04-17T23:56:30.083Z,99.70
2023-04-17T23:59:02.194Z,99.80
